sensor_id;sensor_type;location;lat;lon;timestamp;temperature;humidity
6841;DHT22;3458;53.678;14.080;2023-03-14T00:01:22;12.30;99.90
6841;DHT22;3458;53.678;14.080;2023-03-14T00:03:49;12.30;99.90
6841;DHT22;3458;53.678;14.080;2023-03-14T00:06:15;12.30;99.90
6841;DHT22;3458;53.678;14.080;2023-03-14T00:08:41;12.30;99.90
6841;DHT22;3458;53.678;14.080;2023-03-14T00:11:16;12.20;99.90
6841;DHT22;3458;53.678;14.080;2023-03-14T00:13:43;12.20;99.90
6841;DHT22;3458;53.678;14.080;2023-03-14T00:16:13;12.20;99.90
6841;DHT22;3458;53.678;14.080;2023-03-14T00:18:39;12.20;99.90
6841;DHT22;3458;53.678;14.080;2023-03-14T00:21:06;12.20;99.90
6841;DHT22;3458;53.678;14.080;2023-03-14T00:23:33;12.10;99.90
6841;DHT22;3458;53.678;14.080;2023-03-14T00:26:04;12.10;99.90
6841;DHT22;3458;53.678;14.080;2023-03-14T00:28:30;12.10;99.90
6841;DHT22;3458;53.678;14.080;2023-03-14T00:30:55;12.10;99.90
6841;DHT22;3458;53.678;14.080;2023-03-14T00:33:21;12.10;99.90
6841;DHT22;3458;53.678;14.080;2023-03-14T00:35:58;12.10;99.90
6841;DHT22;3458;53.678;14.080;2023-03-14T00:38:25;12.10;99.90
6841;DHT22;3458;53.678;14.080;2023-03-14T00:40:52;12.00;99.90
6841;DHT22;3458;53.678;14.080;2023-03-14T00:43:18;12.00;99.90
6841;DHT22;3458;53.678;14.080;2023-03-14T00:45:44;12.00;99.90
6841;DHT22;3458;53.678;14.080;2023-03-14T00:48:09;12.00;99.90
6841;DHT22;3458;53.678;14.080;2023-03-14T00:50:35;11.90;99.90
6841;DHT22;3458;53.678;14.080;2023-03-14T00:53:01;12.00;99.90
6841;DHT22;3458;53.678;14.080;2023-03-14T00:55:26;11.90;99.90
6841;DHT22;3458;53.678;14.080;2023-03-14T00:57:52;11.90;99.90
6841;DHT22;3458;53.678;14.080;2023-03-14T01:00:17;11.80;99.90
6841;DHT22;3458;53.678;14.080;2023-03-14T01:02:43;11.90;99.90
6841;DHT22;3458;53.678;14.080;2023-03-14T01:05:09;11.80;99.90
6841;DHT22;3458;53.678;14.080;2023-03-14T01:07:36;11.80;99.90
6841;DHT22;3458;53.678;14.080;2023-03-14T01:10:03;11.80;99.90
6841;DHT22;3458;53.678;14.080;2023-03-14T01:12:29;11.80;99.90
6841;DHT22;3458;53.678;14.080;2023-03-14T01:14:54;11.80;99.90
6841;DHT22;3458;53.678;14.080;2023-03-14T01:17:20;11.70;99.90
6841;DHT22;3458;53.678;14.080;2023-03-14T01:19:45;11.70;99.90
6841;DHT22;3458;53.678;14.080;2023-03-14T01:22:11;11.70;99.90
6841;DHT22;3458;53.678;14.080;2023-03-14T01:24:37;11.60;99.90
6841;DHT22;3458;53.678;14.080;2023-03-14T01:27:03;11.70;99.90
6841;DHT22;3458;53.678;14.080;2023-03-14T01:29:28;11.60;99.90
6841;DHT22;3458;53.678;14.080;2023-03-14T01:31:54;11.60;99.90
6841;DHT22;3458;53.678;14.080;2023-03-14T01:34:20;11.60;99.90
6841;DHT22;3458;53.678;14.080;2023-03-14T01:36:45;11.60;99.90
6841;DHT22;3458;53.678;14.080;2023-03-14T01:39:11;11.60;99.90
6841;DHT22;3458;53.678;14.080;2023-03-14T01:41:38;11.60;99.90
6841;DHT22;3458;53.678;14.080;2023-03-14T01:44:04;11.50;99.90
6841;DHT22;3458;53.678;14.080;2023-03-14T01:46:43;11.50;99.90
6841;DHT22;3458;53.678;14.080;2023-03-14T01:51:57;11.50;99.90
6841;DHT22;3458;53.678;14.080;2023-03-14T01:54:42;11.50;99.90
6841;DHT22;3458;53.678;14.080;2023-03-14T01:57:14;11.40;99.90
6841;DHT22;3458;53.678;14.080;2023-03-14T01:59:45;11.40;99.90
6841;DHT22;3458;53.678;14.080;2023-03-14T02:02:12;11.40;99.90
6841;DHT22;3458;53.678;14.080;2023-03-14T02:04:38;11.40;99.90
6841;DHT22;3458;53.678;14.080;2023-03-14T02:07:10;11.40;99.90
6841;DHT22;3458;53.678;14.080;2023-03-14T02:09:39;11.40;99.90
6841;DHT22;3458;53.678;14.080;2023-03-14T02:12:06;11.40;99.90
6841;DHT22;3458;53.678;14.080;2023-03-14T02:14:35;11.40;99.90
6841;DHT22;3458;53.678;14.080;2023-03-14T02:17:03;11.40;99.90
6841;DHT22;3458;53.678;14.080;2023-03-14T02:22:15;11.30;99.90
6841;DHT22;3458;53.678;14.080;2023-03-14T02:24:54;11.30;99.90
6841;DHT22;3458;53.678;14.080;2023-03-14T02:27:21;11.30;99.90
6841;DHT22;3458;53.678;14.080;2023-03-14T02:29:57;11.30;99.90
6841;DHT22;3458;53.678;14.080;2023-03-14T02:32:24;11.30;99.90
6841;DHT22;3458;53.678;14.080;2023-03-14T02:34:54;11.30;99.90
6841;DHT22;3458;53.678;14.080;2023-03-14T02:37:23;11.40;99.90
6841;DHT22;3458;53.678;14.080;2023-03-14T02:39:49;11.30;99.90
6841;DHT22;3458;53.678;14.080;2023-03-14T02:42:15;11.30;99.90
6841;DHT22;3458;53.678;14.080;2023-03-14T02:47:33;11.30;99.90
6841;DHT22;3458;53.678;14.080;2023-03-14T02:50:07;11.30;99.90
6841;DHT22;3458;53.678;14.080;2023-03-14T02:52:33;11.30;99.90
6841;DHT22;3458;53.678;14.080;2023-03-14T02:54:59;11.20;99.90
6841;DHT22;3458;53.678;14.080;2023-03-14T02:57:25;11.20;99.90
6841;DHT22;3458;53.678;14.080;2023-03-14T02:59:50;11.20;99.90
6841;DHT22;3458;53.678;14.080;2023-03-14T03:02:16;11.20;99.90
6841;DHT22;3458;53.678;14.080;2023-03-14T03:04:42;11.20;99.90
6841;DHT22;3458;53.678;14.080;2023-03-14T03:07:07;11.20;99.90
6841;DHT22;3458;53.678;14.080;2023-03-14T03:09:33;11.20;99.90
6841;DHT22;3458;53.678;14.080;2023-03-14T03:11:58;11.20;99.90
6841;DHT22;3458;53.678;14.080;2023-03-14T03:14:24;11.20;99.90
6841;DHT22;3458;53.678;14.080;2023-03-14T03:16:49;11.20;99.90
6841;DHT22;3458;53.678;14.080;2023-03-14T03:19:15;11.20;99.90
6841;DHT22;3458;53.678;14.080;2023-03-14T03:21:41;11.20;99.90
6841;DHT22;3458;53.678;14.080;2023-03-14T03:24:06;11.20;99.90
6841;DHT22;3458;53.678;14.080;2023-03-14T03:26:34;11.20;99.90
6841;DHT22;3458;53.678;14.080;2023-03-14T03:29:00;11.20;99.90
6841;DHT22;3458;53.678;14.080;2023-03-14T03:31:25;11.20;99.90
6841;DHT22;3458;53.678;14.080;2023-03-14T03:33:51;11.20;99.90
6841;DHT22;3458;53.678;14.080;2023-03-14T03:36:21;11.20;99.90
6841;DHT22;3458;53.678;14.080;2023-03-14T03:38:47;11.10;99.90
6841;DHT22;3458;53.678;14.080;2023-03-14T03:41:13;11.10;99.90
6841;DHT22;3458;53.678;14.080;2023-03-14T03:43:38;11.20;99.90
6841;DHT22;3458;53.678;14.080;2023-03-14T03:46:04;11.10;99.90
6841;DHT22;3458;53.678;14.080;2023-03-14T03:48:30;11.20;99.90
6841;DHT22;3458;53.678;14.080;2023-03-14T03:50:56;11.20;99.90
6841;DHT22;3458;53.678;14.080;2023-03-14T03:53:22;11.10;99.90
6841;DHT22;3458;53.678;14.080;2023-03-14T03:55:48;11.10;99.90
6841;DHT22;3458;53.678;14.080;2023-03-14T03:58:13;11.10;99.90
6841;DHT22;3458;53.678;14.080;2023-03-14T04:00:39;11.10;99.90
6841;DHT22;3458;53.678;14.080;2023-03-14T04:03:05;11.10;99.90
6841;DHT22;3458;53.678;14.080;2023-03-14T04:05:30;11.10;99.90
6841;DHT22;3458;53.678;14.080;2023-03-14T04:07:56;11.10;99.90
6841;DHT22;3458;53.678;14.080;2023-03-14T04:10:21;11.10;99.90
6841;DHT22;3458;53.678;14.080;2023-03-14T04:12:47;11.10;99.90
6841;DHT22;3458;53.678;14.080;2023-03-14T04:15:12;11.20;99.90
6841;DHT22;3458;53.678;14.080;2023-03-14T04:17:38;11.20;99.90
6841;DHT22;3458;53.678;14.080;2023-03-14T04:20:04;11.20;99.90
6841;DHT22;3458;53.678;14.080;2023-03-14T04:22:30;11.20;99.90
6841;DHT22;3458;53.678;14.080;2023-03-14T04:24:55;11.20;99.90
6841;DHT22;3458;53.678;14.080;2023-03-14T04:27:21;11.20;99.90
6841;DHT22;3458;53.678;14.080;2023-03-14T04:29:46;11.20;99.90
6841;DHT22;3458;53.678;14.080;2023-03-14T04:32:12;11.20;99.90
6841;DHT22;3458;53.678;14.080;2023-03-14T04:34:37;11.20;99.90
6841;DHT22;3458;53.678;14.080;2023-03-14T04:37:03;11.20;99.90
6841;DHT22;3458;53.678;14.080;2023-03-14T04:39:28;11.20;99.90
6841;DHT22;3458;53.678;14.080;2023-03-14T04:41:54;11.20;99.90
6841;DHT22;3458;53.678;14.080;2023-03-14T04:44:19;11.20;99.90
6841;DHT22;3458;53.678;14.080;2023-03-14T04:46:45;11.20;99.90
6841;DHT22;3458;53.678;14.080;2023-03-14T04:49:10;11.20;99.90
6841;DHT22;3458;53.678;14.080;2023-03-14T04:51:36;11.20;99.90
6841;DHT22;3458;53.678;14.080;2023-03-14T04:54:01;11.20;99.90
6841;DHT22;3458;53.678;14.080;2023-03-14T04:56:27;11.20;99.90
6841;DHT22;3458;53.678;14.080;2023-03-14T04:58:53;11.10;99.90
6841;DHT22;3458;53.678;14.080;2023-03-14T05:01:18;11.10;99.90
6841;DHT22;3458;53.678;14.080;2023-03-14T05:03:44;11.10;99.90
6841;DHT22;3458;53.678;14.080;2023-03-14T05:06:09;11.10;99.90
6841;DHT22;3458;53.678;14.080;2023-03-14T05:08:35;11.10;99.90
6841;DHT22;3458;53.678;14.080;2023-03-14T05:11:01;11.00;99.90
6841;DHT22;3458;53.678;14.080;2023-03-14T05:13:26;11.00;99.90
6841;DHT22;3458;53.678;14.080;2023-03-14T05:15:52;11.00;99.90
6841;DHT22;3458;53.678;14.080;2023-03-14T05:18:18;11.00;99.90
6841;DHT22;3458;53.678;14.080;2023-03-14T05:20:43;11.00;99.90
6841;DHT22;3458;53.678;14.080;2023-03-14T05:23:09;11.00;99.90
6841;DHT22;3458;53.678;14.080;2023-03-14T05:25:35;11.00;99.90
6841;DHT22;3458;53.678;14.080;2023-03-14T05:28:00;11.00;99.90
6841;DHT22;3458;53.678;14.080;2023-03-14T05:30:26;11.00;99.90
6841;DHT22;3458;53.678;14.080;2023-03-14T05:32:53;11.00;99.90
6841;DHT22;3458;53.678;14.080;2023-03-14T05:35:19;11.00;99.90
6841;DHT22;3458;53.678;14.080;2023-03-14T05:37:45;11.00;99.90
6841;DHT22;3458;53.678;14.080;2023-03-14T05:40:10;11.00;99.90
6841;DHT22;3458;53.678;14.080;2023-03-14T05:42:36;11.10;99.90
6841;DHT22;3458;53.678;14.080;2023-03-14T05:45:02;11.10;99.90
6841;DHT22;3458;53.678;14.080;2023-03-14T05:47:27;11.10;99.90
6841;DHT22;3458;53.678;14.080;2023-03-14T05:49:53;11.20;99.90
6841;DHT22;3458;53.678;14.080;2023-03-14T05:52:18;11.20;99.90
6841;DHT22;3458;53.678;14.080;2023-03-14T05:54:44;11.20;99.90
6841;DHT22;3458;53.678;14.080;2023-03-14T05:57:09;11.20;99.90
6841;DHT22;3458;53.678;14.080;2023-03-14T05:59:35;11.20;99.90
6841;DHT22;3458;53.678;14.080;2023-03-14T06:02:00;11.20;99.90
6841;DHT22;3458;53.678;14.080;2023-03-14T06:04:26;11.20;99.90
6841;DHT22;3458;53.678;14.080;2023-03-14T06:06:51;11.20;99.90
6841;DHT22;3458;53.678;14.080;2023-03-14T06:09:17;11.20;99.90
6841;DHT22;3458;53.678;14.080;2023-03-14T06:11:45;11.20;99.90
6841;DHT22;3458;53.678;14.080;2023-03-14T06:14:11;11.20;99.90
6841;DHT22;3458;53.678;14.080;2023-03-14T06:16:36;11.10;99.90
6841;DHT22;3458;53.678;14.080;2023-03-14T06:19:02;11.10;99.90
6841;DHT22;3458;53.678;14.080;2023-03-14T06:21:27;11.10;99.90
6841;DHT22;3458;53.678;14.080;2023-03-14T06:23:53;11.10;99.90
6841;DHT22;3458;53.678;14.080;2023-03-14T06:26:18;11.10;99.90
6841;DHT22;3458;53.678;14.080;2023-03-14T06:28:44;11.10;99.90
6841;DHT22;3458;53.678;14.080;2023-03-14T06:31:09;11.10;99.90
6841;DHT22;3458;53.678;14.080;2023-03-14T06:33:35;11.10;99.90
6841;DHT22;3458;53.678;14.080;2023-03-14T06:36:00;11.10;99.90
6841;DHT22;3458;53.678;14.080;2023-03-14T06:38:26;11.10;99.90
6841;DHT22;3458;53.678;14.080;2023-03-14T06:40:51;11.10;99.90
6841;DHT22;3458;53.678;14.080;2023-03-14T06:43:17;11.10;99.90
6841;DHT22;3458;53.678;14.080;2023-03-14T06:45:42;11.00;99.90
6841;DHT22;3458;53.678;14.080;2023-03-14T06:48:08;11.10;99.90
6841;DHT22;3458;53.678;14.080;2023-03-14T06:50:33;11.10;99.90
6841;DHT22;3458;53.678;14.080;2023-03-14T06:52:59;11.10;99.90
6841;DHT22;3458;53.678;14.080;2023-03-14T06:55:24;11.10;99.90
6841;DHT22;3458;53.678;14.080;2023-03-14T06:57:51;11.20;99.90
6841;DHT22;3458;53.678;14.080;2023-03-14T07:00:17;11.20;99.90
6841;DHT22;3458;53.678;14.080;2023-03-14T07:02:42;11.20;99.90
6841;DHT22;3458;53.678;14.080;2023-03-14T07:05:08;11.20;99.90
6841;DHT22;3458;53.678;14.080;2023-03-14T07:07:35;11.20;99.90
6841;DHT22;3458;53.678;14.080;2023-03-14T07:10:01;11.20;99.90
6841;DHT22;3458;53.678;14.080;2023-03-14T07:12:26;11.30;99.90
6841;DHT22;3458;53.678;14.080;2023-03-14T07:14:51;11.20;99.90
6841;DHT22;3458;53.678;14.080;2023-03-14T07:17:17;11.30;99.90
6841;DHT22;3458;53.678;14.080;2023-03-14T07:19:42;11.30;99.90
6841;DHT22;3458;53.678;14.080;2023-03-14T07:22:08;11.30;99.90
6841;DHT22;3458;53.678;14.080;2023-03-14T07:24:33;11.30;99.90
6841;DHT22;3458;53.678;14.080;2023-03-14T07:26:59;11.30;99.90
6841;DHT22;3458;53.678;14.080;2023-03-14T07:29:24;11.40;99.90
6841;DHT22;3458;53.678;14.080;2023-03-14T07:31:50;11.40;99.90
6841;DHT22;3458;53.678;14.080;2023-03-14T07:34:15;11.40;99.90
6841;DHT22;3458;53.678;14.080;2023-03-14T07:36:41;11.40;99.90
6841;DHT22;3458;53.678;14.080;2023-03-14T07:39:06;11.50;99.90
6841;DHT22;3458;53.678;14.080;2023-03-14T07:41:32;11.50;99.90
6841;DHT22;3458;53.678;14.080;2023-03-14T07:43:58;11.50;99.90
6841;DHT22;3458;53.678;14.080;2023-03-14T07:46:23;11.50;99.90
6841;DHT22;3458;53.678;14.080;2023-03-14T07:48:49;11.50;99.90
6841;DHT22;3458;53.678;14.080;2023-03-14T07:51:15;11.60;99.90
6841;DHT22;3458;53.678;14.080;2023-03-14T07:53:40;11.70;99.90
6841;DHT22;3458;53.678;14.080;2023-03-14T07:56:06;11.60;99.90
6841;DHT22;3458;53.678;14.080;2023-03-14T07:58:32;11.70;99.90
6841;DHT22;3458;53.678;14.080;2023-03-14T08:00:59;11.80;99.90
6841;DHT22;3458;53.678;14.080;2023-03-14T08:03:25;11.80;99.90
6841;DHT22;3458;53.678;14.080;2023-03-14T08:05:50;11.90;99.90
6841;DHT22;3458;53.678;14.080;2023-03-14T08:08:17;12.00;99.90
6841;DHT22;3458;53.678;14.080;2023-03-14T08:10:43;12.10;99.90
6841;DHT22;3458;53.678;14.080;2023-03-14T08:13:09;12.20;99.90
6841;DHT22;3458;53.678;14.080;2023-03-14T08:15:35;12.30;99.90
6841;DHT22;3458;53.678;14.080;2023-03-14T08:18:00;12.40;99.90
6841;DHT22;3458;53.678;14.080;2023-03-14T08:20:28;12.40;99.90
6841;DHT22;3458;53.678;14.080;2023-03-14T08:22:57;12.40;99.90
6841;DHT22;3458;53.678;14.080;2023-03-14T08:25:24;12.30;99.90
6841;DHT22;3458;53.678;14.080;2023-03-14T08:27:49;12.20;99.90
6841;DHT22;3458;53.678;14.080;2023-03-14T08:30:16;12.20;99.90
6841;DHT22;3458;53.678;14.080;2023-03-14T08:32:42;12.20;99.90
6841;DHT22;3458;53.678;14.080;2023-03-14T08:35:08;12.40;99.90
6841;DHT22;3458;53.678;14.080;2023-03-14T08:37:35;12.50;99.90
6841;DHT22;3458;53.678;14.080;2023-03-14T08:40:02;12.60;99.90
6841;DHT22;3458;53.678;14.080;2023-03-14T08:42:32;12.70;99.90
6841;DHT22;3458;53.678;14.080;2023-03-14T08:44:57;12.80;99.90
6841;DHT22;3458;53.678;14.080;2023-03-14T08:47:23;13.00;99.90
6841;DHT22;3458;53.678;14.080;2023-03-14T08:49:48;13.00;99.90
6841;DHT22;3458;53.678;14.080;2023-03-14T08:52:14;13.10;99.90
6841;DHT22;3458;53.678;14.080;2023-03-14T08:54:43;13.20;99.90
6841;DHT22;3458;53.678;14.080;2023-03-14T08:57:08;13.30;99.90
6841;DHT22;3458;53.678;14.080;2023-03-14T08:59:34;13.40;99.90
6841;DHT22;3458;53.678;14.080;2023-03-14T09:01:59;13.50;99.90
6841;DHT22;3458;53.678;14.080;2023-03-14T09:04:31;13.70;99.90
6841;DHT22;3458;53.678;14.080;2023-03-14T09:06:57;13.70;99.90
6841;DHT22;3458;53.678;14.080;2023-03-14T09:09:26;13.70;99.90
6841;DHT22;3458;53.678;14.080;2023-03-14T09:11:56;13.60;99.90
6841;DHT22;3458;53.678;14.080;2023-03-14T09:14:21;13.50;99.90
6841;DHT22;3458;53.678;14.080;2023-03-14T09:16:47;13.50;99.90
6841;DHT22;3458;53.678;14.080;2023-03-14T09:19:13;13.50;99.90
6841;DHT22;3458;53.678;14.080;2023-03-14T09:21:38;13.40;99.90
6841;DHT22;3458;53.678;14.080;2023-03-14T09:24:04;13.50;99.90
6841;DHT22;3458;53.678;14.080;2023-03-14T09:26:30;13.60;99.90
6841;DHT22;3458;53.678;14.080;2023-03-14T09:28:56;13.70;99.90
6841;DHT22;3458;53.678;14.080;2023-03-14T09:31:21;13.80;99.90
6841;DHT22;3458;53.678;14.080;2023-03-14T09:33:47;13.80;99.90
6841;DHT22;3458;53.678;14.080;2023-03-14T09:36:12;13.80;99.90
6841;DHT22;3458;53.678;14.080;2023-03-14T09:38:38;13.70;99.90
6841;DHT22;3458;53.678;14.080;2023-03-14T09:41:21;13.80;99.90
6841;DHT22;3458;53.678;14.080;2023-03-14T09:43:47;13.90;99.90
6841;DHT22;3458;53.678;14.080;2023-03-14T09:46:16;13.90;99.90
6841;DHT22;3458;53.678;14.080;2023-03-14T09:48:43;13.90;99.90
6841;DHT22;3458;53.678;14.080;2023-03-14T09:51:16;13.90;99.90
6841;DHT22;3458;53.678;14.080;2023-03-14T09:53:44;13.90;99.90
6841;DHT22;3458;53.678;14.080;2023-03-14T09:56:20;13.90;99.90
6841;DHT22;3458;53.678;14.080;2023-03-14T09:58:51;13.90;99.90
6841;DHT22;3458;53.678;14.080;2023-03-14T10:01:28;13.90;99.90
6841;DHT22;3458;53.678;14.080;2023-03-14T10:03:55;13.90;99.90
6841;DHT22;3458;53.678;14.080;2023-03-14T10:06:26;13.80;99.90
6841;DHT22;3458;53.678;14.080;2023-03-14T10:08:51;13.80;99.90
6841;DHT22;3458;53.678;14.080;2023-03-14T10:11:18;14.00;99.90
6841;DHT22;3458;53.678;14.080;2023-03-14T10:16:33;14.20;99.90
6841;DHT22;3458;53.678;14.080;2023-03-14T10:19:12;14.20;99.90
6841;DHT22;3458;53.678;14.080;2023-03-14T10:21:41;14.10;99.90
6841;DHT22;3458;53.678;14.080;2023-03-14T10:24:21;13.90;99.90
6841;DHT22;3458;53.678;14.080;2023-03-14T10:27:38;14.00;99.90
6841;DHT22;3458;53.678;14.080;2023-03-14T10:29:52;14.20;99.90
6841;DHT22;3458;53.678;14.080;2023-03-14T10:32:23;14.40;99.90
6841;DHT22;3458;53.678;14.080;2023-03-14T10:37:56;14.50;99.90
6841;DHT22;3458;53.678;14.080;2023-03-14T10:40:33;14.40;99.90
6841;DHT22;3458;53.678;14.080;2023-03-14T10:43:05;14.30;99.90
6841;DHT22;3458;53.678;14.080;2023-03-14T10:45:38;14.20;99.90
6841;DHT22;3458;53.678;14.080;2023-03-14T10:48:24;14.10;99.90
6841;DHT22;3458;53.678;14.080;2023-03-14T10:53:47;14.20;99.90
6841;DHT22;3458;53.678;14.080;2023-03-14T10:56:25;14.20;99.90
6841;DHT22;3458;53.678;14.080;2023-03-14T10:58:54;14.30;99.90
6841;DHT22;3458;53.678;14.080;2023-03-14T11:04:34;14.20;99.90
6841;DHT22;3458;53.678;14.080;2023-03-14T11:07:36;14.10;99.90
6841;DHT22;3458;53.678;14.080;2023-03-14T11:10:21;14.00;99.90
6841;DHT22;3458;53.678;14.080;2023-03-14T11:18:50;13.90;99.90
6841;DHT22;3458;53.678;14.080;2023-03-14T11:21:22;13.80;99.90
6841;DHT22;3458;53.678;14.080;2023-03-14T11:24:00;13.70;99.90
6841;DHT22;3458;53.678;14.080;2023-03-14T11:27:04;13.70;99.90
6841;DHT22;3458;53.678;14.080;2023-03-14T11:29:36;13.70;99.90
6841;DHT22;3458;53.678;14.080;2023-03-14T11:32:25;13.80;99.90
6841;DHT22;3458;53.678;14.080;2023-03-14T11:34:54;13.90;99.90
6841;DHT22;3458;53.678;14.080;2023-03-14T11:37:28;13.90;99.90
6841;DHT22;3458;53.678;14.080;2023-03-14T11:40:02;13.90;99.90
6841;DHT22;3458;53.678;14.080;2023-03-14T11:42:32;13.90;99.90
6841;DHT22;3458;53.678;14.080;2023-03-14T11:45:00;14.00;99.90
6841;DHT22;3458;53.678;14.080;2023-03-14T11:47:31;14.30;99.90
6841;DHT22;3458;53.678;14.080;2023-03-14T11:52:39;14.40;99.90
6841;DHT22;3458;53.678;14.080;2023-03-14T11:55:15;14.30;99.90
6841;DHT22;3458;53.678;14.080;2023-03-14T11:57:42;14.40;99.90
6841;DHT22;3458;53.678;14.080;2023-03-14T12:00:21;14.50;99.90
6841;DHT22;3458;53.678;14.080;2023-03-14T12:03:26;14.60;99.90
6841;DHT22;3458;53.678;14.080;2023-03-14T12:05:50;14.70;99.90
6841;DHT22;3458;53.678;14.080;2023-03-14T12:08:29;14.80;99.90
6841;DHT22;3458;53.678;14.080;2023-03-14T12:11:18;15.30;99.90
6841;DHT22;3458;53.678;14.080;2023-03-14T12:13:50;15.60;99.90
6841;DHT22;3458;53.678;14.080;2023-03-14T12:16:30;15.50;99.90
6841;DHT22;3458;53.678;14.080;2023-03-14T12:18:55;15.30;99.90
6841;DHT22;3458;53.678;14.080;2023-03-14T12:21:21;15.30;99.90
6841;DHT22;3458;53.678;14.080;2023-03-14T12:23:55;15.50;99.90
6841;DHT22;3458;53.678;14.080;2023-03-14T12:26:24;15.50;99.90
6841;DHT22;3458;53.678;14.080;2023-03-14T12:39:39;15.90;99.90
6841;DHT22;3458;53.678;14.080;2023-03-14T12:44:50;16.70;99.80
6841;DHT22;3458;53.678;14.080;2023-03-14T12:49:46;16.60;99.90
6841;DHT22;3458;53.678;14.080;2023-03-14T12:52:19;16.40;98.50
6841;DHT22;3458;53.678;14.080;2023-03-14T12:54:58;16.30;99.20
6841;DHT22;3458;53.678;14.080;2023-03-14T12:57:32;16.50;99.90
6841;DHT22;3458;53.678;14.080;2023-03-14T13:00:02;16.50;99.30
6841;DHT22;3458;53.678;14.080;2023-03-14T13:02:41;15.90;99.90
6841;DHT22;3458;53.678;14.080;2023-03-14T13:05:19;15.40;99.90
6841;DHT22;3458;53.678;14.080;2023-03-14T13:10:25;14.80;99.90
6841;DHT22;3458;53.678;14.080;2023-03-14T13:15:42;14.50;99.90
6841;DHT22;3458;53.678;14.080;2023-03-14T13:18:16;14.80;99.90
6841;DHT22;3458;53.678;14.080;2023-03-14T13:20:50;15.30;99.90
6841;DHT22;3458;53.678;14.080;2023-03-14T13:23:27;16.30;99.90
6841;DHT22;3458;53.678;14.080;2023-03-14T13:25:53;17.20;99.90
6841;DHT22;3458;53.678;14.080;2023-03-14T13:28:19;17.30;99.90
6841;DHT22;3458;53.678;14.080;2023-03-14T13:30:46;17.80;99.90
6841;DHT22;3458;53.678;14.080;2023-03-14T13:33:18;18.20;99.90
6841;DHT22;3458;53.678;14.080;2023-03-14T13:35:47;18.30;98.60
6841;DHT22;3458;53.678;14.080;2023-03-14T13:38:24;17.60;98.10
6841;DHT22;3458;53.678;14.080;2023-03-14T13:40:51;16.60;99.20
6841;DHT22;3458;53.678;14.080;2023-03-14T13:43:25;16.00;99.90
6841;DHT22;3458;53.678;14.080;2023-03-14T13:45:53;15.70;99.90
6841;DHT22;3458;53.678;14.080;2023-03-14T13:48:19;15.40;99.90
6841;DHT22;3458;53.678;14.080;2023-03-14T13:50:51;15.30;99.90
6841;DHT22;3458;53.678;14.080;2023-03-14T13:53:18;15.20;99.90
6841;DHT22;3458;53.678;14.080;2023-03-14T13:55:43;15.00;99.90
6841;DHT22;3458;53.678;14.080;2023-03-14T13:58:18;14.90;99.90
6841;DHT22;3458;53.678;14.080;2023-03-14T14:00:54;14.70;99.90
6841;DHT22;3458;53.678;14.080;2023-03-14T14:03:19;14.60;99.90
6841;DHT22;3458;53.678;14.080;2023-03-14T14:05:45;14.50;99.90
6841;DHT22;3458;53.678;14.080;2023-03-14T14:08:12;14.40;99.90
6841;DHT22;3458;53.678;14.080;2023-03-14T14:10:37;14.40;99.90
6841;DHT22;3458;53.678;14.080;2023-03-14T14:13:06;14.30;99.90
6841;DHT22;3458;53.678;14.080;2023-03-14T14:15:39;14.30;99.90
6841;DHT22;3458;53.678;14.080;2023-03-14T14:18:09;14.20;99.90
6841;DHT22;3458;53.678;14.080;2023-03-14T14:20:39;14.10;99.90
6841;DHT22;3458;53.678;14.080;2023-03-14T14:23:26;13.90;99.90
6841;DHT22;3458;53.678;14.080;2023-03-14T14:25:55;13.80;99.90
6841;DHT22;3458;53.678;14.080;2023-03-14T14:28:30;13.00;99.90
6841;DHT22;3458;53.678;14.080;2023-03-14T14:33:25;12.20;99.90
6841;DHT22;3458;53.678;14.080;2023-03-14T14:35:59;11.90;99.90
6841;DHT22;3458;53.678;14.080;2023-03-14T14:38:26;11.80;99.90
6841;DHT22;3458;53.678;14.080;2023-03-14T14:40:54;11.60;99.90
6841;DHT22;3458;53.678;14.080;2023-03-14T14:43:23;11.40;99.90
6841;DHT22;3458;53.678;14.080;2023-03-14T14:45:50;11.00;99.90
6841;DHT22;3458;53.678;14.080;2023-03-14T14:48:21;10.60;99.90
6841;DHT22;3458;53.678;14.080;2023-03-14T14:50:57;10.50;99.90
6841;DHT22;3458;53.678;14.080;2023-03-14T14:53:39;10.40;99.90
6841;DHT22;3458;53.678;14.080;2023-03-14T14:56:18;10.20;99.90
6841;DHT22;3458;53.678;14.080;2023-03-14T14:58:47;10.00;99.90
6841;DHT22;3458;53.678;14.080;2023-03-14T15:01:22;9.90;99.90
6841;DHT22;3458;53.678;14.080;2023-03-14T15:03:51;9.70;99.90
6841;DHT22;3458;53.678;14.080;2023-03-14T15:06:17;9.80;99.90
6841;DHT22;3458;53.678;14.080;2023-03-14T15:08:44;9.70;99.90
6841;DHT22;3458;53.678;14.080;2023-03-14T15:11:22;9.40;99.90
6841;DHT22;3458;53.678;14.080;2023-03-14T15:13:49;9.40;99.90
6841;DHT22;3458;53.678;14.080;2023-03-14T15:16:21;9.40;99.90
6841;DHT22;3458;53.678;14.080;2023-03-14T15:18:57;9.20;99.90
6841;DHT22;3458;53.678;14.080;2023-03-14T15:21:24;9.20;99.90
6841;DHT22;3458;53.678;14.080;2023-03-14T15:23:50;8.60;99.90
6841;DHT22;3458;53.678;14.080;2023-03-14T15:26:18;8.30;99.90
6841;DHT22;3458;53.678;14.080;2023-03-14T15:28:44;7.70;99.90
6841;DHT22;3458;53.678;14.080;2023-03-14T15:31:12;7.80;99.90
6841;DHT22;3458;53.678;14.080;2023-03-14T15:33:38;7.70;99.90
6841;DHT22;3458;53.678;14.080;2023-03-14T15:36:05;7.60;99.90
6841;DHT22;3458;53.678;14.080;2023-03-14T15:38:31;7.60;99.90
6841;DHT22;3458;53.678;14.080;2023-03-14T15:40:56;7.80;99.90
6841;DHT22;3458;53.678;14.080;2023-03-14T15:43:22;7.80;99.90
6841;DHT22;3458;53.678;14.080;2023-03-14T15:45:47;7.70;99.90
6841;DHT22;3458;53.678;14.080;2023-03-14T15:48:16;7.80;99.90
6841;DHT22;3458;53.678;14.080;2023-03-14T15:50:43;7.70;99.90
6841;DHT22;3458;53.678;14.080;2023-03-14T15:53:09;7.70;99.90
6841;DHT22;3458;53.678;14.080;2023-03-14T15:55:34;7.70;99.90
6841;DHT22;3458;53.678;14.080;2023-03-14T15:57:59;7.70;99.90
6841;DHT22;3458;53.678;14.080;2023-03-14T16:00:27;7.60;99.90
6841;DHT22;3458;53.678;14.080;2023-03-14T16:02:53;7.60;99.90
6841;DHT22;3458;53.678;14.080;2023-03-14T16:05:19;7.60;99.90
6841;DHT22;3458;53.678;14.080;2023-03-14T16:07:45;7.60;99.90
6841;DHT22;3458;53.678;14.080;2023-03-14T16:10:12;7.50;99.90
6841;DHT22;3458;53.678;14.080;2023-03-14T16:12:38;7.20;99.90
6841;DHT22;3458;53.678;14.080;2023-03-14T16:15:04;7.00;99.90
6841;DHT22;3458;53.678;14.080;2023-03-14T16:17:30;7.20;99.90
6841;DHT22;3458;53.678;14.080;2023-03-14T16:19:55;7.20;99.90
6841;DHT22;3458;53.678;14.080;2023-03-14T16:22:21;7.00;99.90
6841;DHT22;3458;53.678;14.080;2023-03-14T16:24:47;7.00;99.90
6841;DHT22;3458;53.678;14.080;2023-03-14T16:27:12;7.10;99.90
6841;DHT22;3458;53.678;14.080;2023-03-14T16:29:38;7.00;99.90
6841;DHT22;3458;53.678;14.080;2023-03-14T16:32:04;6.80;99.90
6841;DHT22;3458;53.678;14.080;2023-03-14T16:34:29;6.80;99.90
6841;DHT22;3458;53.678;14.080;2023-03-14T16:36:56;6.80;99.90
6841;DHT22;3458;53.678;14.080;2023-03-14T16:39:21;6.80;99.90
6841;DHT22;3458;53.678;14.080;2023-03-14T16:41:47;6.70;99.90
6841;DHT22;3458;53.678;14.080;2023-03-14T16:44:12;6.80;99.90
6841;DHT22;3458;53.678;14.080;2023-03-14T16:46:38;6.80;99.90